| Date | Time | Temp. (oF) | Dew Point (oF) | Rel. Hum. (%) | Press. (in.) | Wind Dir. | Wind Speed (mph) | Hourly Rainfall (in.) |
|
|---|---|---|---|---|---|---|---|---|---|
| 1 | 12/07 | 00:00 | 25 | 20 | 83 | 29.95 | NW | 12 | 0.00 |
| 2 | 12/06 | 23:00 | 26 | 21 | 84 | 29.97 | WNW | 10 | 0.00 |
| 3 | 12/06 | 22:00 | 25 | 20 | 84 | 29.98 | NW | 6 | 0.00 |
| 4 | 12/06 | 21:00 | 24 | 20 | 85 | 29.98 | WNW | 5 | 0.00 |
| 5 | 12/06 | 20:00 | 25 | 20 | 83 | 29.97 | NW | 6 | 0.00 |
| 6 | 12/06 | 19:00 | 25 | 20 | 84 | 29.96 | NW | 10 | 0.00 |
| 7 | 12/06 | 18:00 | 26 | 21 | 83 | 29.95 | NW | 5 | 0.00 |
| 8 | 12/06 | 17:00 | 26 | 21 | 84 | 29.95 | NW | 6 | 0.00 |
| 9 | 12/06 | 16:00 | 27 | 22 | 83 | 29.93 | WNW | 8 | 0.00 |
| 10 | 12/06 | 15:00 | 28 | 23 | 83 | 29.91 | NNW | 12 | 0.00 |
| 11 | 12/06 | 14:00 | 27 | 23 | 86 | 29.93 | WNW | 14 | 0.00 |
| 12 | 12/06 | 13:00 | 27 | 24 | 89 | 29.94 | NW | 6 | 0.00 |
| 13 | 12/06 | 12:00 | 27 | 24 | 91 | 29.94 | NW | 10 | 0.04 |
| 14 | 12/06 | 11:00 | 27 | 26 | 97 | 29.95 | NNE | 7 | 0.07 |
| 15 | 12/06 | 10:00 | 25 | 24 | 100 | 29.97 | NW | 7 | 0.00 |
| 16 | 12/06 | 09:00 | 24 | 23 | 100 | 29.97 | NW | 6 | 0.01 |
| 17 | 12/06 | 08:00 | 24 | 23 | 100 | 29.96 | NNW | 5 | 0.00 |
| 18 | 12/06 | 07:00 | 24 | 23 | 100 | 29.96 | NNW | 6 | 0.00 |
| 19 | 12/06 | 06:00 | 24 | 23 | 100 | 29.96 | NNE | 9 | 0.01 |
| 20 | 12/06 | 05:00 | 24 | 23 | 100 | 29.97 | N | 5 | 0.00 |
| 21 | 12/06 | 04:00 | 24 | 23 | 100 | 29.97 | N | 13 | 0.00 |
| 22 | 12/06 | 03:00 | 24 | 23 | 100 | 29.98 | N | 5 | 0.00 |
| 23 | 12/06 | 02:00 | 24 | 23 | 100 | 29.98 | NNW | 5 | 0.00 |
| 24 | 12/06 | 01:00 | 24 | 23 | 100 | 29.98 | NNW | 7 | 0.00 |